createdAt,value
2023-04-26T00:00:00.000Z,6.08
2023-04-26T00:15:00.000Z,4.29
2023-04-26T00:30:00.000Z,4.09
2023-04-26T00:45:00.000Z,4.01
2023-04-26T01:00:00.000Z,4.18
2023-04-26T01:15:00.000Z,3.85
2023-04-26T01:30:00.000Z,4.2
2023-04-26T01:45:00.000Z,4.31
2023-04-26T02:00:00.000Z,6.44
2023-04-26T02:15:00.000Z,6.35
2023-04-26T02:30:00.000Z,6.86
2023-04-26T02:45:00.000Z,7.58
2023-04-26T03:00:00.000Z,8.66
2023-04-26T03:15:00.000Z,9.98
2023-04-26T03:30:00.000Z,9.88
2023-04-26T03:45:00.000Z,9.33
2023-04-26T04:00:00.000Z,6.52
2023-04-26T04:15:00.000Z,6.55
2023-04-26T04:30:00.000Z,5.04
2023-04-26T04:45:00.000Z,7.56
2023-04-26T05:00:00.000Z,13.72
2023-04-26T05:15:00.000Z,19.82
2023-04-26T05:30:00.000Z,16.67
2023-04-26T05:45:00.000Z,15.57
2023-04-26T06:00:00.000Z,16.78
2023-04-26T06:15:00.000Z,14.07
2023-04-26T06:30:00.000Z,14.25
2023-04-26T06:45:00.000Z,15.47
2023-04-26T07:00:00.000Z,19.29
2023-04-26T07:15:00.000Z,21.07
2023-04-26T07:30:00.000Z,19.71
2023-04-26T07:45:00.000Z,16.05
2023-04-26T08:00:00.000Z,14.33
2023-04-26T08:15:00.000Z,14.11
2023-04-26T08:30:00.000Z,15.28
2023-04-26T08:45:00.000Z,16.47
2023-04-26T09:00:00.000Z,14.92
2023-04-26T09:15:00.000Z,20.95
2023-04-26T09:30:00.000Z,20.16
2023-04-26T09:45:00.000Z,14.4
2023-04-26T10:00:00.000Z,12.04
2023-04-26T10:15:00.000Z,8.94
2023-04-26T10:30:00.000Z,22.87
2023-04-26T10:45:00.000Z,17.84
2023-04-26T11:00:00.000Z,17.24
2023-04-26T11:15:00.000Z,7.51
2023-04-26T11:30:00.000Z,11.73
2023-04-26T11:45:00.000Z,8.62
2023-04-26T12:00:00.000Z,9.74
2023-04-26T12:15:00.000Z,12.44
2023-04-26T12:30:00.000Z,19.86
2023-04-26T12:45:00.000Z,15.52
2023-04-26T13:00:00.000Z,7.87
2023-04-26T13:15:00.000Z,8
2023-04-26T13:30:00.000Z,8.56
2023-04-26T13:45:00.000Z,8.39
2023-04-26T14:00:00.000Z,7.76
2023-04-26T14:15:00.000Z,7.26
2023-04-26T14:30:00.000Z,8
2023-04-26T14:45:00.000Z,7.52
2023-04-26T15:00:00.000Z,7.52
2023-04-26T15:15:00.000Z,8.52
2023-04-26T15:30:00.000Z,7.29
2023-04-26T15:45:00.000Z,7.74
2023-04-26T16:00:00.000Z,7.93
2023-04-26T16:15:00.000Z,9.29
2023-04-26T16:30:00.000Z,10.45
2023-04-26T16:45:00.000Z,10
2023-04-26T17:00:00.000Z,9.46
2023-04-26T17:15:00.000Z,10.34
2023-04-26T17:30:00.000Z,14.68
2023-04-26T17:45:00.000Z,14.66
2023-04-26T18:00:00.000Z,13.81
2023-04-26T18:15:00.000Z,13.33
2023-04-26T18:30:00.000Z,14.62
2023-04-26T18:45:00.000Z,14.96
2023-04-26T19:00:00.000Z,16.04
2023-04-26T19:15:00.000Z,16.14
2023-04-26T19:30:00.000Z,19.09
2023-04-26T19:45:00.000Z,20.26
2023-04-26T20:00:00.000Z,19.99
2023-04-26T20:15:00.000Z,16.81
2023-04-26T20:30:00.000Z,23.69
2023-04-26T20:45:00.000Z,22.27
2023-04-26T21:00:00.000Z,14.59
2023-04-26T21:15:00.000Z,14.12
2023-04-26T21:30:00.000Z,22.58
2023-04-26T21:45:00.000Z,26.44
2023-04-26T22:00:00.000Z,17.48
2023-04-26T22:15:00.000Z,20.47
2023-04-26T22:30:00.000Z,15.84
2023-04-26T22:45:00.000Z,15.01
2023-04-26T23:00:00.000Z,20.29
2023-04-26T23:15:00.000Z,15.61
2023-04-26T23:30:00.000Z,13.12
2023-04-26T23:45:00.000Z,13.44
